sensor_id;sensor_type;location;lat;lon;timestamp;temperature;humidity
13462;DHT22;6803;45.264;5.468;2023-03-23T00:01:34;11.80;99.90
13462;DHT22;6803;45.264;5.468;2023-03-23T00:04:05;11.80;99.90
13462;DHT22;6803;45.264;5.468;2023-03-23T00:06:35;11.80;99.90
13462;DHT22;6803;45.264;5.468;2023-03-23T00:09:04;11.80;99.90
13462;DHT22;6803;45.264;5.468;2023-03-23T00:11:34;11.80;99.90
13462;DHT22;6803;45.264;5.468;2023-03-23T00:14:04;11.90;99.90
13462;DHT22;6803;45.264;5.468;2023-03-23T00:16:34;11.90;99.90
13462;DHT22;6803;45.264;5.468;2023-03-23T00:19:07;11.90;99.90
13462;DHT22;6803;45.264;5.468;2023-03-23T00:21:37;12.00;99.90
13462;DHT22;6803;45.264;5.468;2023-03-23T00:24:09;11.90;99.90
13462;DHT22;6803;45.264;5.468;2023-03-23T00:26:40;11.90;99.90
13462;DHT22;6803;45.264;5.468;2023-03-23T00:29:13;11.90;99.90
13462;DHT22;6803;45.264;5.468;2023-03-23T00:31:44;11.90;99.90
13462;DHT22;6803;45.264;5.468;2023-03-23T00:34:16;11.90;99.90
13462;DHT22;6803;45.264;5.468;2023-03-23T00:36:47;11.90;99.90
13462;DHT22;6803;45.264;5.468;2023-03-23T00:39:18;11.90;99.90
13462;DHT22;6803;45.264;5.468;2023-03-23T00:41:48;11.90;99.90
13462;DHT22;6803;45.264;5.468;2023-03-23T00:44:17;11.80;99.90
13462;DHT22;6803;45.264;5.468;2023-03-23T00:46:48;11.80;99.90
13462;DHT22;6803;45.264;5.468;2023-03-23T00:49:19;11.80;99.90
13462;DHT22;6803;45.264;5.468;2023-03-23T00:51:52;11.80;99.90
13462;DHT22;6803;45.264;5.468;2023-03-23T00:54:22;11.70;99.90
13462;DHT22;6803;45.264;5.468;2023-03-23T00:56:52;11.80;99.90
13462;DHT22;6803;45.264;5.468;2023-03-23T00:59:22;11.70;99.90
13462;DHT22;6803;45.264;5.468;2023-03-23T01:01:52;11.70;99.90
13462;DHT22;6803;45.264;5.468;2023-03-23T01:04:21;11.60;99.90
13462;DHT22;6803;45.264;5.468;2023-03-23T01:06:51;11.70;99.90
13462;DHT22;6803;45.264;5.468;2023-03-23T01:09:22;11.60;99.90
13462;DHT22;6803;45.264;5.468;2023-03-23T01:11:52;11.60;99.90
13462;DHT22;6803;45.264;5.468;2023-03-23T01:14:24;11.60;99.90
13462;DHT22;6803;45.264;5.468;2023-03-23T01:16:54;11.50;99.90
13462;DHT22;6803;45.264;5.468;2023-03-23T01:19:24;11.40;99.90
13462;DHT22;6803;45.264;5.468;2023-03-23T01:21:54;11.40;99.90
13462;DHT22;6803;45.264;5.468;2023-03-23T01:24:23;11.40;99.90
13462;DHT22;6803;45.264;5.468;2023-03-23T01:26:53;11.40;99.90
13462;DHT22;6803;45.264;5.468;2023-03-23T01:29:23;11.50;99.90
13462;DHT22;6803;45.264;5.468;2023-03-23T01:31:52;11.50;99.90
13462;DHT22;6803;45.264;5.468;2023-03-23T01:34:22;11.50;99.90
13462;DHT22;6803;45.264;5.468;2023-03-23T01:36:51;11.40;99.90
13462;DHT22;6803;45.264;5.468;2023-03-23T01:39:21;11.30;99.90
13462;DHT22;6803;45.264;5.468;2023-03-23T01:41:50;11.30;99.90
13462;DHT22;6803;45.264;5.468;2023-03-23T01:47:25;11.20;99.90
13462;DHT22;6803;45.264;5.468;2023-03-23T01:49:55;11.30;99.90
13462;DHT22;6803;45.264;5.468;2023-03-23T01:52:26;11.30;99.90
13462;DHT22;6803;45.264;5.468;2023-03-23T01:54:58;11.20;99.90
13462;DHT22;6803;45.264;5.468;2023-03-23T01:57:28;11.10;99.90
13462;DHT22;6803;45.264;5.468;2023-03-23T02:00:02;11.00;99.90
13462;DHT22;6803;45.264;5.468;2023-03-23T02:02:36;11.10;99.90
13462;DHT22;6803;45.264;5.468;2023-03-23T02:05:10;11.10;99.90
13462;DHT22;6803;45.264;5.468;2023-03-23T02:07:40;11.10;99.90
13462;DHT22;6803;45.264;5.468;2023-03-23T02:10:11;11.20;99.90
13462;DHT22;6803;45.264;5.468;2023-03-23T02:12:40;11.20;99.90
13462;DHT22;6803;45.264;5.468;2023-03-23T02:15:11;11.30;99.90
13462;DHT22;6803;45.264;5.468;2023-03-23T02:17:44;11.40;99.90
13462;DHT22;6803;45.264;5.468;2023-03-23T02:20:23;11.40;99.90
13462;DHT22;6803;45.264;5.468;2023-03-23T02:26:12;11.40;99.90
13462;DHT22;6803;45.264;5.468;2023-03-23T02:34:50;11.20;99.90
13462;DHT22;6803;45.264;5.468;2023-03-23T02:37:23;11.20;99.90
13462;DHT22;6803;45.264;5.468;2023-03-23T02:39:56;11.00;99.90
13462;DHT22;6803;45.264;5.468;2023-03-23T02:42:28;11.00;99.90
13462;DHT22;6803;45.264;5.468;2023-03-23T02:45:03;10.90;99.90
13462;DHT22;6803;45.264;5.468;2023-03-23T02:47:34;10.90;99.90
13462;DHT22;6803;45.264;5.468;2023-03-23T02:50:07;10.90;99.90
13462;DHT22;6803;45.264;5.468;2023-03-23T02:52:38;11.00;99.90
13462;DHT22;6803;45.264;5.468;2023-03-23T02:55:11;10.90;99.90
13462;DHT22;6803;45.264;5.468;2023-03-23T02:57:42;10.70;99.90
13462;DHT22;6803;45.264;5.468;2023-03-23T03:00:16;10.70;99.90
13462;DHT22;6803;45.264;5.468;2023-03-23T03:02:48;10.70;99.90
13462;DHT22;6803;45.264;5.468;2023-03-23T03:05:28;10.70;99.90
13462;DHT22;6803;45.264;5.468;2023-03-23T03:08:05;10.70;99.90
13462;DHT22;6803;45.264;5.468;2023-03-23T03:10:40;10.70;99.90
13462;DHT22;6803;45.264;5.468;2023-03-23T03:13:11;10.60;99.90
13462;DHT22;6803;45.264;5.468;2023-03-23T03:15:45;10.60;99.90
13462;DHT22;6803;45.264;5.468;2023-03-23T03:18:18;10.50;99.90
13462;DHT22;6803;45.264;5.468;2023-03-23T03:20:52;10.60;99.90
13462;DHT22;6803;45.264;5.468;2023-03-23T03:23:24;10.40;99.90
13462;DHT22;6803;45.264;5.468;2023-03-23T03:25:55;10.40;99.90
13462;DHT22;6803;45.264;5.468;2023-03-23T03:28:26;10.40;99.90
13462;DHT22;6803;45.264;5.468;2023-03-23T03:31:00;10.50;99.90
13462;DHT22;6803;45.264;5.468;2023-03-23T03:33:31;10.50;99.90
13462;DHT22;6803;45.264;5.468;2023-03-23T03:36:03;10.50;99.90
13462;DHT22;6803;45.264;5.468;2023-03-23T03:38:43;10.40;99.90
13462;DHT22;6803;45.264;5.468;2023-03-23T03:41:14;10.50;99.90
13462;DHT22;6803;45.264;5.468;2023-03-23T03:43:43;10.50;99.90
13462;DHT22;6803;45.264;5.468;2023-03-23T03:46:13;10.50;99.90
13462;DHT22;6803;45.264;5.468;2023-03-23T03:48:43;10.50;99.90
13462;DHT22;6803;45.264;5.468;2023-03-23T03:51:13;10.50;99.90
13462;DHT22;6803;45.264;5.468;2023-03-23T03:53:42;10.40;99.90
13462;DHT22;6803;45.264;5.468;2023-03-23T03:56:12;10.50;99.90
13462;DHT22;6803;45.264;5.468;2023-03-23T03:58:41;10.50;99.90
13462;DHT22;6803;45.264;5.468;2023-03-23T04:01:11;10.40;99.90
13462;DHT22;6803;45.264;5.468;2023-03-23T04:03:42;10.50;99.90
13462;DHT22;6803;45.264;5.468;2023-03-23T04:06:11;10.60;99.90
13462;DHT22;6803;45.264;5.468;2023-03-23T04:08:41;10.70;99.90
13462;DHT22;6803;45.264;5.468;2023-03-23T04:11:14;10.70;99.90
13462;DHT22;6803;45.264;5.468;2023-03-23T04:13:44;10.80;99.90
13462;DHT22;6803;45.264;5.468;2023-03-23T04:16:13;10.80;99.90
13462;DHT22;6803;45.264;5.468;2023-03-23T04:18:45;10.70;99.90
13462;DHT22;6803;45.264;5.468;2023-03-23T04:21:15;10.60;99.90
13462;DHT22;6803;45.264;5.468;2023-03-23T04:23:45;10.60;99.90
13462;DHT22;6803;45.264;5.468;2023-03-23T04:26:15;10.50;99.90
13462;DHT22;6803;45.264;5.468;2023-03-23T04:28:45;10.30;99.90
13462;DHT22;6803;45.264;5.468;2023-03-23T04:31:15;10.30;99.90
13462;DHT22;6803;45.264;5.468;2023-03-23T04:33:45;10.40;99.90
13462;DHT22;6803;45.264;5.468;2023-03-23T04:36:15;10.50;99.90
13462;DHT22;6803;45.264;5.468;2023-03-23T04:38:44;10.50;99.90
13462;DHT22;6803;45.264;5.468;2023-03-23T04:41:14;10.50;99.90
13462;DHT22;6803;45.264;5.468;2023-03-23T04:43:44;10.40;99.90
13462;DHT22;6803;45.264;5.468;2023-03-23T04:46:13;10.40;99.90
13462;DHT22;6803;45.264;5.468;2023-03-23T04:48:45;10.30;99.90
13462;DHT22;6803;45.264;5.468;2023-03-23T04:51:15;10.40;99.90
13462;DHT22;6803;45.264;5.468;2023-03-23T04:53:44;10.30;99.90
13462;DHT22;6803;45.264;5.468;2023-03-23T04:56:14;10.30;99.90
13462;DHT22;6803;45.264;5.468;2023-03-23T04:58:43;10.30;99.90
13462;DHT22;6803;45.264;5.468;2023-03-23T05:01:13;10.30;99.90
13462;DHT22;6803;45.264;5.468;2023-03-23T05:03:43;10.30;99.90
13462;DHT22;6803;45.264;5.468;2023-03-23T05:06:12;10.30;99.90
13462;DHT22;6803;45.264;5.468;2023-03-23T05:08:42;10.30;99.90
13462;DHT22;6803;45.264;5.468;2023-03-23T05:11:12;10.40;99.90
13462;DHT22;6803;45.264;5.468;2023-03-23T05:13:42;10.30;99.90
13462;DHT22;6803;45.264;5.468;2023-03-23T05:16:12;10.30;99.90
13462;DHT22;6803;45.264;5.468;2023-03-23T05:19:00;10.30;99.90
13462;DHT22;6803;45.264;5.468;2023-03-23T05:21:30;10.30;99.90
13462;DHT22;6803;45.264;5.468;2023-03-23T05:24:00;10.30;99.90
13462;DHT22;6803;45.264;5.468;2023-03-23T05:26:29;10.30;99.90
13462;DHT22;6803;45.264;5.468;2023-03-23T05:28:59;10.40;99.90
13462;DHT22;6803;45.264;5.468;2023-03-23T05:31:28;10.30;99.90
13462;DHT22;6803;45.264;5.468;2023-03-23T05:33:58;10.30;99.90
13462;DHT22;6803;45.264;5.468;2023-03-23T05:36:27;10.30;99.90
13462;DHT22;6803;45.264;5.468;2023-03-23T05:38:57;10.30;99.90
13462;DHT22;6803;45.264;5.468;2023-03-23T05:41:28;10.20;99.90
13462;DHT22;6803;45.264;5.468;2023-03-23T05:43:57;10.20;99.90
13462;DHT22;6803;45.264;5.468;2023-03-23T05:46:27;10.20;99.90
13462;DHT22;6803;45.264;5.468;2023-03-23T05:48:57;10.20;99.90
13462;DHT22;6803;45.264;5.468;2023-03-23T05:51:26;10.20;99.90
13462;DHT22;6803;45.264;5.468;2023-03-23T05:53:56;10.20;99.90
13462;DHT22;6803;45.264;5.468;2023-03-23T05:56:26;10.30;99.90
13462;DHT22;6803;45.264;5.468;2023-03-23T05:58:56;10.20;99.90
13462;DHT22;6803;45.264;5.468;2023-03-23T06:01:27;10.30;99.90
13462;DHT22;6803;45.264;5.468;2023-03-23T06:03:56;10.40;99.90
13462;DHT22;6803;45.264;5.468;2023-03-23T06:06:27;10.40;99.90
13462;DHT22;6803;45.264;5.468;2023-03-23T06:08:57;10.30;99.90
13462;DHT22;6803;45.264;5.468;2023-03-23T06:11:45;10.30;99.90
13462;DHT22;6803;45.264;5.468;2023-03-23T06:14:15;10.40;99.90
13462;DHT22;6803;45.264;5.468;2023-03-23T06:16:45;10.40;99.90
13462;DHT22;6803;45.264;5.468;2023-03-23T06:19:15;10.40;99.90
13462;DHT22;6803;45.264;5.468;2023-03-23T06:21:45;10.50;99.90
13462;DHT22;6803;45.264;5.468;2023-03-23T06:24:14;10.50;99.90
13462;DHT22;6803;45.264;5.468;2023-03-23T06:26:44;10.50;99.90
13462;DHT22;6803;45.264;5.468;2023-03-23T06:31:55;10.70;99.90
13462;DHT22;6803;45.264;5.468;2023-03-23T06:34:26;10.90;99.90
13462;DHT22;6803;45.264;5.468;2023-03-23T06:36:56;11.10;99.90
13462;DHT22;6803;45.264;5.468;2023-03-23T06:39:26;11.20;99.90
13462;DHT22;6803;45.264;5.468;2023-03-23T06:41:57;11.30;99.90
13462;DHT22;6803;45.264;5.468;2023-03-23T06:44:28;11.50;99.90
13462;DHT22;6803;45.264;5.468;2023-03-23T06:46:57;11.50;99.90
13462;DHT22;6803;45.264;5.468;2023-03-23T06:49:27;11.50;99.90
13462;DHT22;6803;45.264;5.468;2023-03-23T06:51:57;11.50;99.90
13462;DHT22;6803;45.264;5.468;2023-03-23T06:54:28;11.40;99.90
13462;DHT22;6803;45.264;5.468;2023-03-23T06:56:58;11.40;99.90
13462;DHT22;6803;45.264;5.468;2023-03-23T06:59:28;11.30;99.90
13462;DHT22;6803;45.264;5.468;2023-03-23T07:01:58;11.30;99.90
13462;DHT22;6803;45.264;5.468;2023-03-23T07:04:27;11.30;99.90
13462;DHT22;6803;45.264;5.468;2023-03-23T07:06:57;11.30;99.90
13462;DHT22;6803;45.264;5.468;2023-03-23T07:09:26;11.30;99.90
13462;DHT22;6803;45.264;5.468;2023-03-23T07:11:57;11.30;99.90
13462;DHT22;6803;45.264;5.468;2023-03-23T07:14:27;11.40;99.90
13462;DHT22;6803;45.264;5.468;2023-03-23T07:16:57;11.40;99.90
13462;DHT22;6803;45.264;5.468;2023-03-23T07:19:26;11.50;99.90
13462;DHT22;6803;45.264;5.468;2023-03-23T07:21:56;11.50;99.90
13462;DHT22;6803;45.264;5.468;2023-03-23T07:24:26;11.50;99.90
13462;DHT22;6803;45.264;5.468;2023-03-23T07:26:57;11.50;99.90
13462;DHT22;6803;45.264;5.468;2023-03-23T07:29:27;11.60;99.90
13462;DHT22;6803;45.264;5.468;2023-03-23T07:31:57;11.60;99.90
13462;DHT22;6803;45.264;5.468;2023-03-23T07:34:27;11.60;99.90
13462;DHT22;6803;45.264;5.468;2023-03-23T07:36:57;11.60;99.90
13462;DHT22;6803;45.264;5.468;2023-03-23T07:39:26;11.60;99.90
13462;DHT22;6803;45.264;5.468;2023-03-23T07:41:56;11.70;99.90
13462;DHT22;6803;45.264;5.468;2023-03-23T07:44:26;11.70;99.90
13462;DHT22;6803;45.264;5.468;2023-03-23T07:46:55;11.50;99.90
13462;DHT22;6803;45.264;5.468;2023-03-23T07:49:25;11.50;99.90
13462;DHT22;6803;45.264;5.468;2023-03-23T07:51:55;11.50;99.90
13462;DHT22;6803;45.264;5.468;2023-03-23T07:54:25;11.40;99.90
13462;DHT22;6803;45.264;5.468;2023-03-23T07:56:55;11.40;99.90
13462;DHT22;6803;45.264;5.468;2023-03-23T07:59:24;11.40;99.90
13462;DHT22;6803;45.264;5.468;2023-03-23T08:01:54;11.40;99.90
13462;DHT22;6803;45.264;5.468;2023-03-23T08:04:26;11.50;99.90
13462;DHT22;6803;45.264;5.468;2023-03-23T08:06:55;11.50;99.90
13462;DHT22;6803;45.264;5.468;2023-03-23T08:09:25;11.60;99.90
13462;DHT22;6803;45.264;5.468;2023-03-23T08:11:55;11.50;99.90
13462;DHT22;6803;45.264;5.468;2023-03-23T08:14:25;11.60;99.90
13462;DHT22;6803;45.264;5.468;2023-03-23T08:16:56;11.70;99.90
13462;DHT22;6803;45.264;5.468;2023-03-23T08:19:26;11.70;99.90
13462;DHT22;6803;45.264;5.468;2023-03-23T08:21:56;11.80;99.90
13462;DHT22;6803;45.264;5.468;2023-03-23T08:24:26;12.00;99.90
13462;DHT22;6803;45.264;5.468;2023-03-23T08:26:55;12.10;99.90
13462;DHT22;6803;45.264;5.468;2023-03-23T08:29:25;12.20;99.90
13462;DHT22;6803;45.264;5.468;2023-03-23T08:31:55;12.40;99.90
13462;DHT22;6803;45.264;5.468;2023-03-23T08:34:26;12.50;99.90
13462;DHT22;6803;45.264;5.468;2023-03-23T08:36:55;12.50;99.90
13462;DHT22;6803;45.264;5.468;2023-03-23T08:39:25;12.60;99.90
13462;DHT22;6803;45.264;5.468;2023-03-23T08:41:56;12.70;99.90
13462;DHT22;6803;45.264;5.468;2023-03-23T08:44:25;12.70;99.90
13462;DHT22;6803;45.264;5.468;2023-03-23T08:46:55;12.70;99.90
13462;DHT22;6803;45.264;5.468;2023-03-23T08:49:25;12.60;99.90
13462;DHT22;6803;45.264;5.468;2023-03-23T08:51:55;12.50;99.90
13462;DHT22;6803;45.264;5.468;2023-03-23T08:54:25;12.30;99.90
13462;DHT22;6803;45.264;5.468;2023-03-23T08:56:54;12.20;99.90
13462;DHT22;6803;45.264;5.468;2023-03-23T08:59:24;12.20;99.90
13462;DHT22;6803;45.264;5.468;2023-03-23T09:01:54;12.20;99.90
13462;DHT22;6803;45.264;5.468;2023-03-23T09:04:24;12.10;99.90
13462;DHT22;6803;45.264;5.468;2023-03-23T09:06:55;12.10;99.90
13462;DHT22;6803;45.264;5.468;2023-03-23T09:09:26;12.20;99.90
13462;DHT22;6803;45.264;5.468;2023-03-23T09:11:55;12.20;99.90
13462;DHT22;6803;45.264;5.468;2023-03-23T09:14:25;12.30;99.90
13462;DHT22;6803;45.264;5.468;2023-03-23T09:16:55;12.30;99.90
13462;DHT22;6803;45.264;5.468;2023-03-23T09:19:24;12.60;99.90
13462;DHT22;6803;45.264;5.468;2023-03-23T09:21:55;12.70;99.90
13462;DHT22;6803;45.264;5.468;2023-03-23T09:24:24;12.80;99.90
13462;DHT22;6803;45.264;5.468;2023-03-23T09:26:54;13.00;99.90
13462;DHT22;6803;45.264;5.468;2023-03-23T09:29:23;13.20;99.90
13462;DHT22;6803;45.264;5.468;2023-03-23T09:31:53;13.30;99.90
13462;DHT22;6803;45.264;5.468;2023-03-23T09:34:24;13.50;99.90
13462;DHT22;6803;45.264;5.468;2023-03-23T09:36:53;13.50;99.90
13462;DHT22;6803;45.264;5.468;2023-03-23T09:39:23;13.60;99.90
13462;DHT22;6803;45.264;5.468;2023-03-23T09:42:09;13.70;99.90
13462;DHT22;6803;45.264;5.468;2023-03-23T09:44:46;13.70;99.90
13462;DHT22;6803;45.264;5.468;2023-03-23T09:49:59;14.00;99.90
13462;DHT22;6803;45.264;5.468;2023-03-23T09:52:33;14.10;99.90
13462;DHT22;6803;45.264;5.468;2023-03-23T09:55:02;13.90;99.90
13462;DHT22;6803;45.264;5.468;2023-03-23T09:57:36;14.10;99.90
13462;DHT22;6803;45.264;5.468;2023-03-23T10:00:10;14.10;99.90
13462;DHT22;6803;45.264;5.468;2023-03-23T10:02:46;14.10;99.90
13462;DHT22;6803;45.264;5.468;2023-03-23T10:05:36;14.10;99.90
13462;DHT22;6803;45.264;5.468;2023-03-23T10:08:13;14.30;99.90
13462;DHT22;6803;45.264;5.468;2023-03-23T10:10:48;14.60;99.90
13462;DHT22;6803;45.264;5.468;2023-03-23T10:13:25;14.50;99.90
13462;DHT22;6803;45.264;5.468;2023-03-23T10:15:55;14.30;99.90
13462;DHT22;6803;45.264;5.468;2023-03-23T10:18:29;14.40;99.90
13462;DHT22;6803;45.264;5.468;2023-03-23T10:21:00;14.50;99.90
13462;DHT22;6803;45.264;5.468;2023-03-23T10:26:36;14.60;99.90
13462;DHT22;6803;45.264;5.468;2023-03-23T10:29:14;14.60;99.90
13462;DHT22;6803;45.264;5.468;2023-03-23T10:31:46;14.50;99.90
13462;DHT22;6803;45.264;5.468;2023-03-23T10:34:20;14.50;99.90
13462;DHT22;6803;45.264;5.468;2023-03-23T10:36:59;14.50;99.90
13462;DHT22;6803;45.264;5.468;2023-03-23T10:39:31;14.60;99.90
13462;DHT22;6803;45.264;5.468;2023-03-23T10:42:02;14.50;99.90
13462;DHT22;6803;45.264;5.468;2023-03-23T10:44:34;14.80;99.90
13462;DHT22;6803;45.264;5.468;2023-03-23T10:47:06;15.00;99.90
13462;DHT22;6803;45.264;5.468;2023-03-23T10:49:40;15.20;99.90
13462;DHT22;6803;45.264;5.468;2023-03-23T10:52:19;15.10;99.90
13462;DHT22;6803;45.264;5.468;2023-03-23T10:54:50;15.00;99.90
13462;DHT22;6803;45.264;5.468;2023-03-23T10:57:24;15.10;99.90
13462;DHT22;6803;45.264;5.468;2023-03-23T11:00:00;15.50;99.90
13462;DHT22;6803;45.264;5.468;2023-03-23T11:02:39;15.90;99.90
13462;DHT22;6803;45.264;5.468;2023-03-23T11:05:18;15.90;99.90
13462;DHT22;6803;45.264;5.468;2023-03-23T11:07:54;16.00;99.90
13462;DHT22;6803;45.264;5.468;2023-03-23T11:10:27;15.60;99.90
13462;DHT22;6803;45.264;5.468;2023-03-23T11:12:58;15.40;99.90
13462;DHT22;6803;45.264;5.468;2023-03-23T11:15:30;15.20;99.90
13462;DHT22;6803;45.264;5.468;2023-03-23T11:18:04;15.20;99.90
13462;DHT22;6803;45.264;5.468;2023-03-23T11:20:38;15.00;99.90
13462;DHT22;6803;45.264;5.468;2023-03-23T11:26:00;15.10;99.90
13462;DHT22;6803;45.264;5.468;2023-03-23T11:28:34;15.10;99.90
13462;DHT22;6803;45.264;5.468;2023-03-23T11:31:06;15.10;99.90
13462;DHT22;6803;45.264;5.468;2023-03-23T11:33:42;15.20;99.90
13462;DHT22;6803;45.264;5.468;2023-03-23T11:36:13;15.10;99.90
13462;DHT22;6803;45.264;5.468;2023-03-23T11:38:45;15.10;99.90
13462;DHT22;6803;45.264;5.468;2023-03-23T11:41:21;15.10;99.90
13462;DHT22;6803;45.264;5.468;2023-03-23T11:43:52;15.00;99.90
13462;DHT22;6803;45.264;5.468;2023-03-23T11:46:29;15.10;99.90
13462;DHT22;6803;45.264;5.468;2023-03-23T11:49:03;15.10;99.90
13462;DHT22;6803;45.264;5.468;2023-03-23T11:54:17;15.20;99.90
13462;DHT22;6803;45.264;5.468;2023-03-23T11:56:48;15.00;99.90
13462;DHT22;6803;45.264;5.468;2023-03-23T11:59:25;14.90;99.90
13462;DHT22;6803;45.264;5.468;2023-03-23T12:01:53;14.80;99.90
13462;DHT22;6803;45.264;5.468;2023-03-23T12:04:41;14.70;99.90
13462;DHT22;6803;45.264;5.468;2023-03-23T12:07:43;14.80;99.90
13462;DHT22;6803;45.264;5.468;2023-03-23T12:10:22;14.80;99.90
13462;DHT22;6803;45.264;5.468;2023-03-23T12:12:59;15.00;99.90
13462;DHT22;6803;45.264;5.468;2023-03-23T12:15:34;15.10;99.90
13462;DHT22;6803;45.264;5.468;2023-03-23T12:18:12;15.20;99.90
13462;DHT22;6803;45.264;5.468;2023-03-23T12:20:48;15.10;99.90
13462;DHT22;6803;45.264;5.468;2023-03-23T12:23:24;15.00;99.90
13462;DHT22;6803;45.264;5.468;2023-03-23T12:26:18;15.00;99.90
13462;DHT22;6803;45.264;5.468;2023-03-23T12:32:02;15.00;99.90
13462;DHT22;6803;45.264;5.468;2023-03-23T12:34:38;14.80;99.90
13462;DHT22;6803;45.264;5.468;2023-03-23T12:37:16;14.80;99.90
13462;DHT22;6803;45.264;5.468;2023-03-23T12:42:32;14.80;99.90
13462;DHT22;6803;45.264;5.468;2023-03-23T12:45:05;14.70;99.90
13462;DHT22;6803;45.264;5.468;2023-03-23T12:47:40;14.90;99.90
13462;DHT22;6803;45.264;5.468;2023-03-23T12:50:15;14.90;99.90
13462;DHT22;6803;45.264;5.468;2023-03-23T12:52:50;15.00;99.90
13462;DHT22;6803;45.264;5.468;2023-03-23T12:55:23;15.00;99.90
13462;DHT22;6803;45.264;5.468;2023-03-23T12:57:56;15.10;99.90
13462;DHT22;6803;45.264;5.468;2023-03-23T13:00:30;15.00;99.90
13462;DHT22;6803;45.264;5.468;2023-03-23T13:05:45;15.10;99.90
13462;DHT22;6803;45.264;5.468;2023-03-23T13:08:18;15.00;99.90
13462;DHT22;6803;45.264;5.468;2023-03-23T13:10:50;15.10;99.90
13462;DHT22;6803;45.264;5.468;2023-03-23T13:13:23;15.20;99.90
13462;DHT22;6803;45.264;5.468;2023-03-23T13:16:06;15.10;99.90
13462;DHT22;6803;45.264;5.468;2023-03-23T13:18:37;15.20;99.90
13462;DHT22;6803;45.264;5.468;2023-03-23T13:21:13;15.30;99.90
13462;DHT22;6803;45.264;5.468;2023-03-23T13:23:45;15.40;99.90
13462;DHT22;6803;45.264;5.468;2023-03-23T13:26:18;15.60;99.90
13462;DHT22;6803;45.264;5.468;2023-03-23T13:28:55;15.60;99.90
13462;DHT22;6803;45.264;5.468;2023-03-23T13:31:27;15.70;99.90
13462;DHT22;6803;45.264;5.468;2023-03-23T13:34:03;15.80;99.90
13462;DHT22;6803;45.264;5.468;2023-03-23T13:36:36;15.70;99.90
13462;DHT22;6803;45.264;5.468;2023-03-23T13:39:16;15.90;99.90
13462;DHT22;6803;45.264;5.468;2023-03-23T13:41:48;15.80;99.90
13462;DHT22;6803;45.264;5.468;2023-03-23T13:44:22;15.70;99.90
13462;DHT22;6803;45.264;5.468;2023-03-23T13:47:06;15.60;99.90
13462;DHT22;6803;45.264;5.468;2023-03-23T13:49:45;15.30;99.90
13462;DHT22;6803;45.264;5.468;2023-03-23T13:52:21;15.10;99.90
13462;DHT22;6803;45.264;5.468;2023-03-23T13:57:38;15.10;99.90
13462;DHT22;6803;45.264;5.468;2023-03-23T14:00:34;15.10;99.90
13462;DHT22;6803;45.264;5.468;2023-03-23T14:03:11;15.00;99.90
13462;DHT22;6803;45.264;5.468;2023-03-23T14:05:41;15.00;99.90
13462;DHT22;6803;45.264;5.468;2023-03-23T14:08:19;14.90;99.90
13462;DHT22;6803;45.264;5.468;2023-03-23T14:10:50;15.00;99.90
13462;DHT22;6803;45.264;5.468;2023-03-23T14:13:24;15.20;99.90
13462;DHT22;6803;45.264;5.468;2023-03-23T14:16:00;15.10;99.90
13462;DHT22;6803;45.264;5.468;2023-03-23T14:18:35;15.00;99.90
13462;DHT22;6803;45.264;5.468;2023-03-23T14:21:12;15.10;99.90
13462;DHT22;6803;45.264;5.468;2023-03-23T14:23:37;15.10;99.90
13462;DHT22;6803;45.264;5.468;2023-03-23T14:26:12;15.20;99.90
13462;DHT22;6803;45.264;5.468;2023-03-23T14:28:44;15.30;99.90
13462;DHT22;6803;45.264;5.468;2023-03-23T14:31:19;15.30;99.90
13462;DHT22;6803;45.264;5.468;2023-03-23T14:33:50;15.10;99.90
13462;DHT22;6803;45.264;5.468;2023-03-23T14:36:26;15.20;99.90
13462;DHT22;6803;45.264;5.468;2023-03-23T14:39:02;15.00;99.90
13462;DHT22;6803;45.264;5.468;2023-03-23T14:41:35;15.00;99.90
13462;DHT22;6803;45.264;5.468;2023-03-23T14:44:07;15.00;99.90
13462;DHT22;6803;45.264;5.468;2023-03-23T14:46:38;15.00;99.90
13462;DHT22;6803;45.264;5.468;2023-03-23T14:49:10;15.00;99.90
13462;DHT22;6803;45.264;5.468;2023-03-23T14:51:48;15.10;99.90
13462;DHT22;6803;45.264;5.468;2023-03-23T14:54:24;15.20;99.90
13462;DHT22;6803;45.264;5.468;2023-03-23T14:56:54;15.30;99.90
13462;DHT22;6803;45.264;5.468;2023-03-23T14:59:24;15.30;99.90
13462;DHT22;6803;45.264;5.468;2023-03-23T15:01:54;15.30;99.90
13462;DHT22;6803;45.264;5.468;2023-03-23T15:04:25;15.30;99.90
13462;DHT22;6803;45.264;5.468;2023-03-23T15:06:58;15.40;99.90
13462;DHT22;6803;45.264;5.468;2023-03-23T15:09:28;15.40;99.90
13462;DHT22;6803;45.264;5.468;2023-03-23T15:12:00;15.30;99.90
13462;DHT22;6803;45.264;5.468;2023-03-23T15:14:32;15.30;99.90
13462;DHT22;6803;45.264;5.468;2023-03-23T15:17:03;15.30;99.90
13462;DHT22;6803;45.264;5.468;2023-03-23T15:19:35;15.40;99.90
13462;DHT22;6803;45.264;5.468;2023-03-23T15:22:12;15.60;99.90
13462;DHT22;6803;45.264;5.468;2023-03-23T15:24:41;15.60;99.90
13462;DHT22;6803;45.264;5.468;2023-03-23T15:27:16;15.60;99.90
13462;DHT22;6803;45.264;5.468;2023-03-23T15:29:51;15.60;99.90
13462;DHT22;6803;45.264;5.468;2023-03-23T15:32:26;15.70;99.90
13462;DHT22;6803;45.264;5.468;2023-03-23T15:34:57;15.90;99.90
13462;DHT22;6803;45.264;5.468;2023-03-23T15:37:29;15.90;99.90
13462;DHT22;6803;45.264;5.468;2023-03-23T15:40:00;15.80;99.90
13462;DHT22;6803;45.264;5.468;2023-03-23T15:42:32;15.80;99.90
13462;DHT22;6803;45.264;5.468;2023-03-23T15:45:23;15.90;99.90
13462;DHT22;6803;45.264;5.468;2023-03-23T15:47:57;16.10;99.90
13462;DHT22;6803;45.264;5.468;2023-03-23T15:50:35;16.10;99.90
13462;DHT22;6803;45.264;5.468;2023-03-23T15:55:52;16.20;99.90
13462;DHT22;6803;45.264;5.468;2023-03-23T15:58:22;16.20;99.90
13462;DHT22;6803;45.264;5.468;2023-03-23T16:00:53;16.10;99.90
13462;DHT22;6803;45.264;5.468;2023-03-23T16:03:26;16.10;99.90
13462;DHT22;6803;45.264;5.468;2023-03-23T16:05:58;15.80;99.90
13462;DHT22;6803;45.264;5.468;2023-03-23T16:08:30;15.80;99.90
13462;DHT22;6803;45.264;5.468;2023-03-23T16:11:01;15.80;99.90
13462;DHT22;6803;45.264;5.468;2023-03-23T16:13:32;15.70;99.90
13462;DHT22;6803;45.264;5.468;2023-03-23T16:16:03;15.70;99.90
13462;DHT22;6803;45.264;5.468;2023-03-23T16:18:34;15.50;99.90
13462;DHT22;6803;45.264;5.468;2023-03-23T16:21:06;15.70;99.90
13462;DHT22;6803;45.264;5.468;2023-03-23T16:23:37;15.50;99.90
13462;DHT22;6803;45.264;5.468;2023-03-23T16:26:09;15.60;99.90
13462;DHT22;6803;45.264;5.468;2023-03-23T16:28:40;15.60;99.90
13462;DHT22;6803;45.264;5.468;2023-03-23T16:31:11;15.60;99.90
13462;DHT22;6803;45.264;5.468;2023-03-23T16:33:41;15.60;99.90
13462;DHT22;6803;45.264;5.468;2023-03-23T16:36:13;15.60;99.90
13462;DHT22;6803;45.264;5.468;2023-03-23T16:38:44;15.50;99.90
13462;DHT22;6803;45.264;5.468;2023-03-23T16:41:16;15.50;99.90
13462;DHT22;6803;45.264;5.468;2023-03-23T16:43:47;15.50;99.90
13462;DHT22;6803;45.264;5.468;2023-03-23T16:46:18;15.50;99.90
13462;DHT22;6803;45.264;5.468;2023-03-23T16:48:48;15.40;99.90
13462;DHT22;6803;45.264;5.468;2023-03-23T16:51:19;15.40;99.90
13462;DHT22;6803;45.264;5.468;2023-03-23T16:53:50;15.40;99.90
13462;DHT22;6803;45.264;5.468;2023-03-23T16:56:21;15.30;99.90